Time;durP1;ratioP1;P1;durP2;ratioP2;P2;SDS_P1;SDS_P2;PMS_P1;PMS_P2;Temp;Humidity;BMP_temperature;BMP_pressure;BME280_temperature;BME280_humidity;BME280_pressure;Samples;Min_cycle;Max_cycle;Signal;HPM_P1;HPM_P2
2021/07/08 00:00:11;;;;;;;2.95;1.08;;;;;;;;;;5084713;28;20081;-53
2021/07/08 00:02:36;;;;;;;1.60;1.50;;;;;;;;;;5074247;28;20032;-53
2021/07/08 00:05:05;;;;;;;2.65;1.70;;;;;;;;;;5091025;28;20080;-51
2021/07/08 00:07:30;;;;;;;3.20;1.90;;;;;;;;;;5072224;28;20107;-54
2021/07/08 00:09:55;;;;;;;1.73;1.50;;;;;;;;;;5090530;28;20103;-53
2021/07/08 00:12:20;;;;;;;1.73;1.20;;;;;;;;;;5088834;28;20016;-51
2021/07/08 00:14:46;;;;;;;1.33;1.13;;;;;;;;;;5092253;28;20048;-54
2021/07/08 00:17:11;;;;;;;2.45;1.70;;;;;;;;;;5088225;28;20074;-51
2021/07/08 00:19:36;;;;;;;1.85;1.73;;;;;;;;;;5090541;28;20024;-54
2021/07/08 00:22:02;;;;;;;1.60;1.50;;;;;;;;;;5088543;28;20036;-52
2021/07/08 00:24:27;;;;;;;2.67;1.50;;;;;;;;;;5091502;28;20475;-53
2021/07/08 00:26:52;;;;;;;2.03;1.63;;;;;;;;;;5078743;28;20073;-54
2021/07/08 00:29:18;;;;;;;2.90;1.50;;;;;;;;;;5076551;28;20028;-52
2021/07/08 00:31:43;;;;;;;1.98;1.88;;;;;;;;;;5088722;28;20115;-54
2021/07/08 00:34:08;;;;;;;2.38;1.50;;;;;;;;;;5085299;28;20107;-53
2021/07/08 00:36:33;;;;;;;1.60;1.45;;;;;;;;;;5071537;28;20460;-54
2021/07/08 00:38:59;;;;;;;2.13;1.30;;;;;;;;;;5076571;28;20490;-53
2021/07/08 00:41:24;;;;;;;2.08;1.50;;;;;;;;;;5069412;28;20054;-54
2021/07/08 00:43:51;;;;;;;3.45;1.60;;;;;;;;;;5077195;28;20016;-53
2021/07/08 00:46:18;;;;;;;2.08;1.90;;;;;;;;;;5081410;28;20025;-52
2021/07/08 00:48:43;;;;;;;3.30;1.88;;;;;;;;;;5076445;28;20049;-51
2021/07/08 00:51:08;;;;;;;2.75;2.55;;;;;;;;;;5084986;28;20017;-51
2021/07/08 00:53:33;;;;;;;4.72;2.70;;;;;;;;;;5075219;28;20020;-52
2021/07/08 00:56:00;;;;;;;6.63;2.92;;;;;;;;;;5075531;28;20024;-54
2021/07/08 00:58:26;;;;;;;3.67;2.95;;;;;;;;;;5085940;28;20020;-55
2021/07/08 01:00:51;;;;;;;3.85;3.10;;;;;;;;;;5087523;28;20682;-54
2021/07/08 01:03:17;;;;;;;3.97;3.05;;;;;;;;;;5085352;28;20131;-52
2021/07/08 01:05:47;;;;;;;3.50;2.67;;;;;;;;;;5076994;28;20033;-53
2021/07/08 01:08:13;;;;;;;2.83;1.83;;;;;;;;;;5076335;28;20016;-50
2021/07/08 01:10:38;;;;;;;2.63;2.30;;;;;;;;;;5078960;28;20024;-50
2021/07/08 01:13:04;;;;;;;2.38;2.17;;;;;;;;;;5094782;28;20015;-51
2021/07/08 01:15:29;;;;;;;2.28;2.00;;;;;;;;;;5083556;28;20095;-53
2021/07/08 01:17:54;;;;;;;2.13;2.00;;;;;;;;;;5085970;28;20537;-55
2021/07/08 01:20:20;;;;;;;2.78;2.53;;;;;;;;;;5088261;28;20021;-51
2021/07/08 01:22:48;;;;;;;3.30;2.92;;;;;;;;;;5082951;28;20027;-52
2021/07/08 01:25:14;;;;;;;3.10;2.42;;;;;;;;;;5093540;28;20027;-51
2021/07/08 01:27:39;;;;;;;3.50;2.55;;;;;;;;;;5094921;28;20098;-50
2021/07/08 01:30:09;;;;;;;4.28;2.72;;;;;;;;;;5090337;28;20020;-49
2021/07/08 01:32:35;;;;;;;5.80;3.15;;;;;;;;;;5071629;28;20459;-50
2021/07/08 01:35:00;;;;;;;5.95;3.47;;;;;;;;;;5088462;28;20049;-50
2021/07/08 01:37:25;;;;;;;4.85;3.10;;;;;;;;;;5074470;28;20020;-52
2021/07/08 01:39:51;;;;;;;5.60;3.08;;;;;;;;;;5086050;28;20138;-56
2021/07/08 01:42:16;;;;;;;4.75;3.15;;;;;;;;;;5082189;28;20077;-54
2021/07/08 01:44:41;;;;;;;3.63;2.53;;;;;;;;;;5095114;28;20089;-50
2021/07/08 01:47:06;;;;;;;6.20;2.88;;;;;;;;;;5094527;28;20044;-52
2021/07/08 01:49:33;;;;;;;5.95;3.38;;;;;;;;;;5088055;28;20028;-53
2021/07/08 01:51:58;;;;;;;3.65;3.22;;;;;;;;;;5085555;28;20036;-51
2021/07/08 01:54:23;;;;;;;6.15;3.80;;;;;;;;;;5073935;28;20032;-52
2021/07/08 01:56:48;;;;;;;9.45;5.45;;;;;;;;;;5074195;28;20020;-51
2021/07/08 01:59:14;;;;;;;11.23;6.70;;;;;;;;;;5075612;28;20479;-53
2021/07/08 02:01:39;;;;;;;14.73;6.95;;;;;;;;;;5073664;28;20021;-51
2021/07/08 02:04:05;;;;;;;14.32;7.03;;;;;;;;;;5088637;28;20048;-52
2021/07/08 02:06:30;;;;;;;11.77;7.40;;;;;;;;;;5092880;28;20119;-55
2021/07/08 02:08:55;;;;;;;11.93;6.90;;;;;;;;;;5087044;28;20036;-49
2021/07/08 02:11:21;;;;;;;8.27;5.50;;;;;;;;;;5090800;28;20027;-54
2021/07/08 02:13:46;;;;;;;9.32;6.13;;;;;;;;;;5092992;28;20039;-53
2021/07/08 02:16:11;;;;;;;5.53;4.63;;;;;;;;;;5085126;28;20499;-52
2021/07/08 02:18:37;;;;;;;11.52;5.53;;;;;;;;;;5088670;28;20016;-53
2021/07/08 02:21:03;;;;;;;7.75;4.97;;;;;;;;;;5089421;28;20030;-51
2021/07/08 02:23:28;;;;;;;8.45;4.72;;;;;;;;;;5092282;28;20020;-55
2021/07/08 02:25:54;;;;;;;6.65;4.90;;;;;;;;;;5084782;28;20013;-54
2021/07/08 02:28:19;;;;;;;7.45;4.90;;;;;;;;;;5084645;28;20031;-51
2021/07/08 02:30:44;;;;;;;7.53;5.30;;;;;;;;;;5089131;28;20016;-53
2021/07/08 02:33:10;;;;;;;7.57;4.85;;;;;;;;;;5079832;28;20533;-53
2021/07/08 02:35:35;;;;;;;7.63;6.00;;;;;;;;;;5073061;28;20611;-52
2021/07/08 02:38:01;;;;;;;6.40;4.93;;;;;;;;;;5075940;28;20025;-55
2021/07/08 02:40:30;;;;;;;6.25;4.22;;;;;;;;;;5086124;28;20090;-51
2021/07/08 02:42:56;;;;;;;4.32;3.88;;;;;;;;;;5092235;28;20463;-53
2021/07/08 02:45:22;;;;;;;4.07;3.78;;;;;;;;;;5092651;28;20023;-54
2021/07/08 02:47:47;;;;;;;5.43;4.93;;;;;;;;;;5073273;28;20024;-51
2021/07/08 02:50:13;;;;;;;7.03;4.78;;;;;;;;;;5085324;28;20019;-52
2021/07/08 02:52:38;;;;;;;6.78;5.15;;;;;;;;;;5082463;28;20016;-53
2021/07/08 02:55:04;;;;;;;4.20;3.80;;;;;;;;;;5088012;28;20023;-54
2021/07/08 02:57:30;;;;;;;4.63;3.65;;;;;;;;;;5072788;28;20460;-52
2021/07/08 02:59:55;;;;;;;4.10;3.50;;;;;;;;;;5077543;28;20024;-51
2021/07/08 03:02:20;;;;;;;4.93;4.35;;;;;;;;;;5086711;28;20020;-52
2021/07/08 03:04:47;;;;;;;5.82;4.60;;;;;;;;;;5071899;28;20499;-51
2021/07/08 03:07:13;;;;;;;8.35;4.53;;;;;;;;;;5080301;28;20030;-54
2021/07/08 03:09:38;;;;;;;6.05;4.03;;;;;;;;;;5087406;28;20012;-51
2021/07/08 03:12:03;;;;;;;5.68;4.03;;;;;;;;;;5088472;28;20093;-53
2021/07/08 03:14:28;;;;;;;6.07;4.68;;;;;;;;;;5075883;28;20423;-49
2021/07/08 03:16:54;;;;;;;5.10;4.63;;;;;;;;;;5072638;28;20066;-53
2021/07/08 03:19:19;;;;;;;5.07;4.68;;;;;;;;;;5072688;28;20024;-50
2021/07/08 03:21:44;;;;;;;5.80;5.03;;;;;;;;;;5069413;28;20028;-54
2021/07/08 03:24:09;;;;;;;6.00;5.15;;;;;;;;;;5088410;28;20036;-52
2021/07/08 03:26:35;;;;;;;6.80;5.35;;;;;;;;;;5078812;28;20038;-52
2021/07/08 03:29:01;;;;;;;6.88;5.15;;;;;;;;;;5077729;28;20127;-52
2021/07/08 03:31:26;;;;;;;8.68;5.38;;;;;;;;;;5080749;28;20035;-53
2021/07/08 03:33:51;;;;;;;5.97;5.45;;;;;;;;;;5075870;28;20019;-51
2021/07/08 03:36:17;;;;;;;6.38;5.32;;;;;;;;;;5072138;28;20028;-51
2021/07/08 03:38:42;;;;;;;7.25;5.15;;;;;;;;;;5079055;28;20024;-54
2021/07/08 03:41:07;;;;;;;6.70;5.10;;;;;;;;;;5080872;28;20479;-53
2021/07/08 03:43:32;;;;;;;7.00;4.60;;;;;;;;;;5092065;28;20016;-54
2021/07/08 03:45:57;;;;;;;4.18;3.83;;;;;;;;;;5092486;28;20395;-54
2021/07/08 03:48:23;;;;;;;4.72;3.85;;;;;;;;;;5091223;28;20383;-52
2021/07/08 03:50:48;;;;;;;6.88;4.53;;;;;;;;;;5085419;28;20430;-53
2021/07/08 03:53:13;;;;;;;6.55;5.45;;;;;;;;;;5092583;28;20016;-53
2021/07/08 03:55:38;;;;;;;5.32;4.72;;;;;;;;;;5087315;28;20082;-49
2021/07/08 03:58:04;;;;;;;5.68;5.15;;;;;;;;;;5072439;28;20031;-50
2021/07/08 04:00:32;;;;;;;7.85;5.78;;;;;;;;;;5086687;28;20024;-52
2021/07/08 04:02:58;;;;;;;6.00;5.40;;;;;;;;;;5087036;28;20044;-53
2021/07/08 04:05:23;;;;;;;7.03;5.15;;;;;;;;;;5073215;28;20029;-52
2021/07/08 04:07:49;;;;;;;6.20;5.60;;;;;;;;;;5072167;28;20017;-53
2021/07/08 04:10:14;;;;;;;9.10;5.47;;;;;;;;;;5086064;28;20035;-52
2021/07/08 04:12:39;;;;;;;6.55;5.95;;;;;;;;;;5089130;28;20020;-54
2021/07/08 04:15:05;;;;;;;6.13;5.18;;;;;;;;;;5088137;28;20074;-49
2021/07/08 04:17:30;;;;;;;5.70;5.20;;;;;;;;;;5090726;28;20024;-53
2021/07/08 04:19:56;;;;;;;6.57;6.03;;;;;;;;;;5081948;28;20094;-52
2021/07/08 04:22:21;;;;;;;5.55;4.85;;;;;;;;;;5071592;28;20104;-55
2021/07/08 04:24:46;;;;;;;6.35;4.63;;;;;;;;;;5092765;28;20012;-52
2021/07/08 04:27:12;;;;;;;5.03;4.63;;;;;;;;;;5083324;28;20029;-53
2021/07/08 04:29:37;;;;;;;7.35;5.70;;;;;;;;;;5074293;28;20107;-55
2021/07/08 04:32:02;;;;;;;5.10;4.63;;;;;;;;;;5087527;28;20056;-54
2021/07/08 04:34:27;;;;;;;5.00;4.60;;;;;;;;;;5089899;28;20111;-54
2021/07/08 04:36:53;;;;;;;5.53;4.70;;;;;;;;;;5081258;28;20012;-51
2021/07/08 04:39:18;;;;;;;7.10;4.20;;;;;;;;;;5090763;28;20061;-51
2021/07/08 04:41:43;;;;;;;5.75;4.07;;;;;;;;;;5085409;28;20448;-48
2021/07/08 04:44:08;;;;;;;6.20;3.38;;;;;;;;;;5081594;28;20024;-53
2021/07/08 04:46:34;;;;;;;4.68;4.13;;;;;;;;;;5076790;28;20033;-53
2021/07/08 04:48:59;;;;;;;5.47;3.88;;;;;;;;;;5082522;28;20122;-54
2021/07/08 04:51:24;;;;;;;6.18;4.40;;;;;;;;;;5073029;28;20103;-54
2021/07/08 04:53:50;;;;;;;4.65;4.18;;;;;;;;;;5075467;28;20024;-51
2021/07/08 04:56:15;;;;;;;5.70;3.85;;;;;;;;;;5081026;28;20052;-50
2021/07/08 04:58:41;;;;;;;4.88;4.40;;;;;;;;;;5094656;28;20019;-54
2021/07/08 05:01:06;;;;;;;5.82;4.20;;;;;;;;;;5089482;28;20116;-52
2021/07/08 05:03:31;;;;;;;5.80;4.43;;;;;;;;;;5089486;28;20558;-54
2021/07/08 05:05:56;;;;;;;5.70;4.63;;;;;;;;;;5092659;28;20016;-52
2021/07/08 05:08:22;;;;;;;6.15;4.28;;;;;;;;;;5082818;28;20119;-54
2021/07/08 05:10:47;;;;;;;6.22;4.10;;;;;;;;;;5086681;28;20020;-50
2021/07/08 05:13:12;;;;;;;5.95;4.05;;;;;;;;;;5095200;28;20509;-54
2021/07/08 05:15:37;;;;;;;5.20;4.22;;;;;;;;;;5090952;28;20052;-54
2021/07/08 05:18:04;;;;;;;4.28;3.53;;;;;;;;;;5076135;28;20043;-49
2021/07/08 05:20:29;;;;;;;5.50;4.05;;;;;;;;;;5077839;28;20490;-51
2021/07/08 05:23:03;;;;;;;4.78;4.28;;;;;;;;;;5093889;28;20017;-52
2021/07/08 05:25:28;;;;;;;7.97;4.57;;;;;;;;;;5093298;28;20046;-52
2021/07/08 05:27:54;;;;;;;7.30;4.07;;;;;;;;;;5079763;28;20395;-53
2021/07/08 05:30:19;;;;;;;4.88;4.30;;;;;;;;;;5079611;28;20089;-51
2021/07/08 05:32:45;;;;;;;5.47;3.70;;;;;;;;;;5085205;28;20022;-50
2021/07/08 05:35:10;;;;;;;5.05;3.63;;;;;;;;;;5074291;28;20099;-53
2021/07/08 05:37:36;;;;;;;5.40;3.83;;;;;;;;;;5090134;28;20020;-51
2021/07/08 05:40:01;;;;;;;6.70;4.43;;;;;;;;;;5077398;28;20078;-53
2021/07/08 05:42:26;;;;;;;5.95;3.58;;;;;;;;;;5083508;28;20024;-53
2021/07/08 05:44:51;;;;;;;4.22;3.47;;;;;;;;;;5093383;28;20082;-51
2021/07/08 05:47:17;;;;;;;8.02;4.55;;;;;;;;;;5081313;28;20145;-53
2021/07/08 05:49:42;;;;;;;6.57;4.75;;;;;;;;;;5089056;28;20387;-51
2021/07/08 05:52:07;;;;;;;4.43;3.38;;;;;;;;;;5090067;28;20115;-51
2021/07/08 05:54:33;;;;;;;8.50;3.83;;;;;;;;;;5089202;28;20024;-53
2021/07/08 05:56:58;;;;;;;6.90;3.35;;;;;;;;;;5093235;28;20020;-48
2021/07/08 05:59:25;;;;;;;4.88;3.58;;;;;;;;;;5093929;28;20017;-54
2021/07/08 06:01:50;;;;;;;5.88;4.20;;;;;;;;;;5088676;28;20020;-51
2021/07/08 06:04:16;;;;;;;8.65;4.57;;;;;;;;;;5081003;28;20087;-52
2021/07/08 06:06:41;;;;;;;8.38;4.30;;;;;;;;;;5090185;28;20099;-48
2021/07/08 06:09:06;;;;;;;6.13;4.20;;;;;;;;;;5088109;28;20036;-49
2021/07/08 06:11:31;;;;;;;5.90;3.80;;;;;;;;;;5088936;28;20034;-54
2021/07/08 06:13:56;;;;;;;5.97;4.55;;;;;;;;;;5078754;28;20649;-50
2021/07/08 06:16:22;;;;;;;5.30;3.60;;;;;;;;;;5079122;28;20012;-51
2021/07/08 06:18:47;;;;;;;4.57;3.65;;;;;;;;;;5092882;28;20027;-51
2021/07/08 06:21:14;;;;;;;5.82;4.43;;;;;;;;;;5085716;28;20081;-53
2021/07/08 06:23:39;;;;;;;6.85;4.18;;;;;;;;;;5085296;28;20060;-53
2021/07/08 06:26:05;;;;;;;4.70;3.63;;;;;;;;;;5085201;28;20059;-48
2021/07/08 06:28:30;;;;;;;5.28;3.28;;;;;;;;;;5086936;28;20028;-52
2021/07/08 06:30:55;;;;;;;8.40;4.30;;;;;;;;;;5089618;28;20444;-50
2021/07/08 06:33:21;;;;;;;6.30;3.90;;;;;;;;;;5079563;28;20009;-54
2021/07/08 06:35:48;;;;;;;4.13;3.83;;;;;;;;;;5081814;28;20035;-51
2021/07/08 06:38:13;;;;;;;6.28;3.67;;;;;;;;;;5089712;28;20059;-53
2021/07/08 06:40:38;;;;;;;6.88;3.90;;;;;;;;;;5088455;28;20621;-50
2021/07/08 06:43:03;;;;;;;4.13;3.72;;;;;;;;;;5087862;28;20024;-49
2021/07/08 06:45:30;;;;;;;5.38;4.22;;;;;;;;;;5090393;28;20020;-54
2021/07/08 06:48:04;;;;;;;4.72;4.25;;;;;;;;;;5078830;28;20081;-51
2021/07/08 06:50:31;;;;;;;5.72;4.07;;;;;;;;;;5082229;28;20024;-52
2021/07/08 06:52:56;;;;;;;4.35;4.05;;;;;;;;;;5079744;28;20424;-53
2021/07/08 06:55:21;;;;;;;6.60;4.60;;;;;;;;;;5085873;28;20008;-51
2021/07/08 06:57:53;;;;;;;4.67;3.80;;;;;;;;;;5079853;28;20130;-49
2021/07/08 07:00:23;;;;;;;5.10;3.90;;;;;;;;;;5072301;28;20271;-49
2021/07/08 07:02:49;;;;;;;6.18;4.15;;;;;;;;;;5077475;28;20101;-52
2021/07/08 07:05:14;;;;;;;6.75;4.57;;;;;;;;;;5081456;28;20055;-49
2021/07/08 07:07:39;;;;;;;6.00;4.40;;;;;;;;;;5072562;28;20020;-53
2021/07/08 07:10:05;;;;;;;6.13;4.33;;;;;;;;;;5073983;28;20020;-52
2021/07/08 07:12:30;;;;;;;6.28;4.35;;;;;;;;;;5081911;28;20267;-55
2021/07/08 07:14:55;;;;;;;5.43;4.37;;;;;;;;;;5079091;28;20020;-53
2021/07/08 07:17:20;;;;;;;8.30;5.20;;;;;;;;;;5080913;28;20322;-51
2021/07/08 07:19:46;;;;;;;5.70;4.78;;;;;;;;;;5078819;28;20153;-54
2021/07/08 07:22:11;;;;;;;7.70;5.00;;;;;;;;;;5087018;28;20024;-53
2021/07/08 07:24:36;;;;;;;8.52;5.28;;;;;;;;;;5074804;28;20270;-52
2021/07/08 07:27:01;;;;;;;7.28;5.10;;;;;;;;;;5089559;28;20024;-51
2021/07/08 07:29:27;;;;;;;7.45;5.15;;;;;;;;;;5086930;28;20398;-50
2021/07/08 07:31:52;;;;;;;5.97;4.90;;;;;;;;;;5084964;28;20028;-53
2021/07/08 07:34:17;;;;;;;5.90;4.40;;;;;;;;;;5080936;28;20021;-52
2021/07/08 07:36:43;;;;;;;5.50;4.90;;;;;;;;;;5079344;28;20074;-50
2021/07/08 07:39:08;;;;;;;6.97;4.55;;;;;;;;;;5087934;28;20373;-50
2021/07/08 07:41:34;;;;;;;6.25;4.30;;;;;;;;;;5075665;28;20008;-54
2021/07/08 07:44:00;;;;;;;5.53;4.50;;;;;;;;;;5085840;28;20170;-51
2021/07/08 07:46:25;;;;;;;6.20;4.55;;;;;;;;;;5079217;28;20118;-53
2021/07/08 07:48:50;;;;;;;7.05;4.20;;;;;;;;;;5077850;28;20024;-52
2021/07/08 07:51:16;;;;;;;5.85;4.18;;;;;;;;;;5085892;28;20020;-54
2021/07/08 07:53:41;;;;;;;4.80;4.38;;;;;;;;;;5082260;28;20031;-53
2021/07/08 07:56:07;;;;;;;5.38;4.03;;;;;;;;;;5078579;28;20020;-53
2021/07/08 07:58:32;;;;;;;5.63;3.92;;;;;;;;;;5091112;28;20052;-54
2021/07/08 08:00:59;;;;;;;4.88;3.53;;;;;;;;;;5069497;28;20146;-48
2021/07/08 08:03:25;;;;;;;5.07;3.67;;;;;;;;;;5078577;28;20513;-52
2021/07/08 08:08:35;;;;;;;5.20;4.20;;;;;;;;;;5088701;28;20051;-51
2021/07/08 08:11:00;;;;;;;5.45;4.18;;;;;;;;;;5087268;28;20016;-50
2021/07/08 08:13:26;;;;;;;5.55;3.45;;;;;;;;;;5076961;28;20226;-53
2021/07/08 08:15:52;;;;;;;5.47;4.05;;;;;;;;;;5085768;28;20024;-53
2021/07/08 08:18:18;;;;;;;4.50;3.30;;;;;;;;;;5071603;28;20111;-52
2021/07/08 08:20:44;;;;;;;5.38;2.92;;;;;;;;;;5070100;28;20320;-51
2021/07/08 08:23:09;;;;;;;3.63;3.05;;;;;;;;;;5085515;28;20020;-49
2021/07/08 08:25:35;;;;;;;3.47;2.30;;;;;;;;;;5084854;28;20027;-49
2021/07/08 08:28:00;;;;;;;4.25;2.30;;;;;;;;;;5089715;28;20020;-53
2021/07/08 08:30:26;;;;;;;4.57;2.65;;;;;;;;;;5089136;28;20096;-51
2021/07/08 08:32:51;;;;;;;2.50;2.20;;;;;;;;;;5089975;28;20483;-53
2021/07/08 08:35:16;;;;;;;3.95;2.65;;;;;;;;;;5091344;28;20020;-53
2021/07/08 08:37:43;;;;;;;2.50;2.13;;;;;;;;;;5085066;28;20050;-53
2021/07/08 08:40:09;;;;;;;3.17;2.78;;;;;;;;;;5077223;28;20031;-49
2021/07/08 08:42:34;;;;;;;4.28;2.70;;;;;;;;;;5080569;28;20024;-54
2021/07/08 08:44:59;;;;;;;4.28;3.10;;;;;;;;;;5080209;28;20391;-55
2021/07/08 08:47:25;;;;;;;3.90;2.77;;;;;;;;;;5075936;28;20027;-52
2021/07/08 08:49:53;;;;;;;3.53;3.22;;;;;;;;;;5080442;28;20266;-51
2021/07/08 08:52:19;;;;;;;4.07;3.38;;;;;;;;;;5082356;28;20028;-54
2021/07/08 08:54:44;;;;;;;3.60;3.30;;;;;;;;;;5080395;28;20043;-51
2021/07/08 08:57:09;;;;;;;4.30;3.57;;;;;;;;;;5082154;28;20259;-54
2021/07/08 08:59:34;;;;;;;3.40;3.10;;;;;;;;;;5080904;28;20266;-54
2021/07/08 09:02:13;;;;;;;3.08;2.78;;;;;;;;;;5078922;28;20262;-52
2021/07/08 09:04:39;;;;;;;3.53;2.78;;;;;;;;;;5092515;28;20050;-51
2021/07/08 09:07:23;;;;;;;3.25;2.58;;;;;;;;;;5092796;28;20020;-49
2021/07/08 09:09:49;;;;;;;4.20;3.60;;;;;;;;;;5090996;28;20039;-54
2021/07/08 09:12:17;;;;;;;4.95;2.85;;;;;;;;;;5089316;28;20028;-53
2021/07/08 09:14:42;;;;;;;3.40;3.10;;;;;;;;;;5087904;28;20017;-54
2021/07/08 09:17:20;;;;;;;5.83;3.20;;;;;;;;;;5085430;28;20035;-51
2021/07/08 09:19:46;;;;;;;3.63;2.67;;;;;;;;;;5089729;28;20304;-52
2021/07/08 09:22:13;;;;;;;3.13;2.80;;;;;;;;;;5081674;28;20028;-54
2021/07/08 09:24:38;;;;;;;2.72;2.53;;;;;;;;;;5086440;28;20107;-51
2021/07/08 09:27:08;;;;;;;3.85;2.88;;;;;;;;;;5085685;28;20116;-53
2021/07/08 09:29:41;;;;;;;4.10;2.78;;;;;;;;;;5084000;28;20031;-53
2021/07/08 09:32:11;;;;;;;3.20;2.55;;;;;;;;;;5079160;28;20055;-52
2021/07/08 09:34:37;;;;;;;3.58;3.28;;;;;;;;;;5081952;28;20058;-53
2021/07/08 09:37:14;;;;;;;3.10;2.60;;;;;;;;;;5082056;28;20078;-54
2021/07/08 09:39:42;;;;;;;3.53;3.17;;;;;;;;;;5087004;28;20081;-53
2021/07/08 09:42:07;;;;;;;6.75;3.50;;;;;;;;;;5085924;28;20484;-52
2021/07/08 09:44:33;;;;;;;5.28;4.53;;;;;;;;;;5094041;28;20035;-54
2021/07/08 09:46:58;;;;;;;4.35;3.75;;;;;;;;;;5093232;28;20410;-52
2021/07/08 09:49:25;;;;;;;7.03;4.05;;;;;;;;;;5092407;28;20051;-51
2021/07/08 09:51:50;;;;;;;5.22;4.03;;;;;;;;;;5090071;28;20043;-52
2021/07/08 09:54:41;;;;;;;7.65;3.92;;;;;;;;;;5075290;28;20401;-53
2021/07/08 09:57:07;;;;;;;4.53;3.97;;;;;;;;;;5092756;28;20467;-54
2021/07/08 09:59:35;;;;;;;5.17;4.53;;;;;;;;;;5083860;28;20023;-50
2021/07/08 10:02:01;;;;;;;6.50;3.83;;;;;;;;;;5076297;28;20271;-50
2021/07/08 10:04:26;;;;;;;4.63;4.20;;;;;;;;;;5079813;28;20090;-54
2021/07/08 10:06:54;;;;;;;5.05;4.03;;;;;;;;;;5073921;28;20055;-53
2021/07/08 10:09:19;;;;;;;6.45;3.80;;;;;;;;;;5091067;28;20015;-53
2021/07/08 10:11:48;;;;;;;4.68;4.10;;;;;;;;;;5089289;28;20020;-52
2021/07/08 10:14:15;;;;;;;5.20;4.03;;;;;;;;;;5093543;28;20387;-55
2021/07/08 10:16:40;;;;;;;5.25;4.80;;;;;;;;;;5091799;28;20142;-51
2021/07/08 10:19:05;;;;;;;5.35;3.78;;;;;;;;;;5092330;28;20139;-54
2021/07/08 10:21:31;;;;;;;6.10;3.35;;;;;;;;;;5081741;28;20027;-54
2021/07/08 10:23:57;;;;;;;5.82;3.55;;;;;;;;;;5080012;28;20033;-52
2021/07/08 10:26:22;;;;;;;4.43;4.03;;;;;;;;;;5074778;28;20557;-50
2021/07/08 10:28:48;;;;;;;5.20;3.75;;;;;;;;;;5091209;28;20055;-54
2021/07/08 10:31:16;;;;;;;5.38;3.63;;;;;;;;;;5088077;28;20020;-52
2021/07/08 10:34:01;;;;;;;6.82;4.43;;;;;;;;;;5087337;28;20026;-54
2021/07/08 10:36:26;;;;;;;;;;;;;;;;;;5075116;28;20024;-54
2021/07/08 10:39:00;;;;;;;5.57;4.38;;;;;;;;;;5092940;28;20006;-54
2021/07/08 10:41:34;;;;;;;7.40;3.83;;;;;;;;;;5088400;28;20111;-53
2021/07/08 10:43:59;;;;;;;7.93;4.10;;;;;;;;;;5086646;28;20024;-51
2021/07/08 10:46:33;;;;;;;3.87;3.50;;;;;;;;;;5082641;28;20093;-54
2021/07/08 10:49:08;;;;;;;5.00;3.50;;;;;;;;;;5087042;28;20270;-51
2021/07/08 10:51:38;;;;;;;4.18;2.30;;;;;;;;;;5088787;28;20289;-54
2021/07/08 10:54:22;;;;;;;2.65;2.38;;;;;;;;;;5082069;28;20487;-54
2021/07/08 10:56:47;;;;;;;3.15;2.20;;;;;;;;;;5082552;28;20040;-53
2021/07/08 10:59:13;;;;;;;2.70;1.93;;;;;;;;;;5078936;28;20021;-55
2021/07/08 11:01:40;;;;;;;3.67;1.95;;;;;;;;;;5084711;28;20262;-54
2021/07/08 11:04:05;;;;;;;3.38;2.08;;;;;;;;;;5088578;28;20105;-53
2021/07/08 11:06:34;;;;;;;3.03;2.10;;;;;;;;;;5082887;28;20024;-54
2021/07/08 11:09:21;;;;;;;2.83;2.63;;;;;;;;;;5083268;28;20029;-52
2021/07/08 11:11:46;;;;;;;4.63;2.75;;;;;;;;;;5080957;28;20032;-53
2021/07/08 11:14:14;;;;;;;4.00;2.30;;;;;;;;;;5092132;28;20016;-53
2021/07/08 11:16:45;;;;;;;3.63;2.00;;;;;;;;;;5087399;28;20262;-51
2021/07/08 11:19:11;;;;;;;4.53;1.58;;;;;;;;;;5091465;28;20027;-53
2021/07/08 11:21:49;;;;;;;1.90;1.70;;;;;;;;;;5086651;28;20034;-56
2021/07/08 11:24:17;;;;;;;3.53;1.67;;;;;;;;;;5077705;28;20055;-55
2021/07/08 11:26:53;;;;;;;2.03;1.88;;;;;;;;;;5077969;28;20024;-55
2021/07/08 11:29:37;;;;;;;3.10;1.73;;;;;;;;;;5080173;28;20495;-54
2021/07/08 11:32:17;;;;;;;3.97;2.30;;;;;;;;;;5081761;28;20029;-55
2021/07/08 11:34:50;;;;;;;5.47;2.17;;;;;;;;;;5076672;28;20262;-55
2021/07/08 11:37:17;;;;;;;4.85;2.28;;;;;;;;;;5083550;28;20039;-54
2021/07/08 11:39:43;;;;;;;3.13;1.98;;;;;;;;;;5076831;28;20024;-54
2021/07/08 11:42:09;;;;;;;2.50;1.67;;;;;;;;;;5071654;28;20103;-53
2021/07/08 11:44:34;;;;;;;5.72;1.90;;;;;;;;;;5090736;28;20022;-54
2021/07/08 11:46:59;;;;;;;2.47;1.45;;;;;;;;;;5082970;28;20029;-55
2021/07/08 11:49:26;;;;;;;2.90;1.40;;;;;;;;;;5083396;28;20024;-55
2021/07/08 11:51:51;;;;;;;1.90;0.63;;;;;;;;;;5077411;28;20438;-54
2021/07/08 11:54:16;;;;;;;4.13;0.70;;;;;;;;;;5084668;28;20020;-51
2021/07/08 11:56:42;;;;;;;1.60;0.70;;;;;;;;;;5089923;28;20062;-52
2021/07/08 11:59:07;;;;;;;2.87;1.00;;;;;;;;;;5084775;28;20294;-54
2021/07/08 12:01:32;;;;;;;2.05;0.40;;;;;;;;;;5088007;28;20289;-52
2021/07/08 12:03:59;;;;;;;2.33;0.40;;;;;;;;;;5078001;28;20238;-54
2021/07/08 12:06:26;;;;;;;1.35;0.60;;;;;;;;;;5079102;28;20262;-51
2021/07/08 12:08:57;;;;;;;6.47;1.33;;;;;;;;;;5077527;28;20115;-53
2021/07/08 12:11:28;;;;;;;1.95;0.43;;;;;;;;;;5088683;28;20024;-54
2021/07/08 12:13:57;;;;;;;1.77;0.60;;;;;;;;;;5078538;28;20080;-53
2021/07/08 12:16:30;;;;;;;1.95;0.80;;;;;;;;;;5082195;28;20027;-54
2021/07/08 12:18:56;;;;;;;2.88;1.15;;;;;;;;;;5075519;28;20016;-54
2021/07/08 12:21:23;;;;;;;2.50;1.00;;;;;;;;;;5088391;28;20487;-55
2021/07/08 12:23:48;;;;;;;1.50;0.93;;;;;;;;;;5082311;28;20020;-53
2021/07/08 12:26:25;;;;;;;7.45;1.67;;;;;;;;;;5081115;28;20020;-54
2021/07/08 12:28:50;;;;;;;1.85;1.00;;;;;;;;;;5075977;28;20035;-54
2021/07/08 12:31:18;;;;;;;4.07;1.40;;;;;;;;;;5079211;28;20028;-52
2021/07/08 12:33:53;;;;;;;3.50;1.30;;;;;;;;;;5083033;28;20066;-54
2021/07/08 12:36:18;;;;;;;3.30;1.70;;;;;;;;;;5076845;28;20036;-51
2021/07/08 12:38:46;;;;;;;2.60;1.80;;;;;;;;;;5078562;28;20012;-52
2021/07/08 12:41:11;;;;;;;2.28;2.08;;;;;;;;;;5073772;28;20360;-54
2021/07/08 12:43:37;;;;;;;6.50;4.47;;;;;;;;;;5075826;28;20036;-50
2021/07/08 12:46:09;;;;;;;10.35;5.63;;;;;;;;;;5081099;28;20052;-53
2021/07/08 12:48:35;;;;;;;7.85;5.22;;;;;;;;;;5081547;28;20063;-56
2021/07/08 12:51:00;;;;;;;7.63;5.35;;;;;;;;;;5073717;28;20388;-53
2021/07/08 12:53:26;;;;;;;8.73;6.68;;;;;;;;;;5082413;28;20023;-51
2021/07/08 12:55:58;;;;;;;9.32;5.72;;;;;;;;;;5082798;28;20008;-53
2021/07/08 12:58:25;;;;;;;8.93;5.25;;;;;;;;;;5084716;28;20017;-50
2021/07/08 13:00:51;;;;;;;4.32;3.88;;;;;;;;;;5075466;28;20147;-52
2021/07/08 13:03:18;;;;;;;4.13;3.65;;;;;;;;;;5076409;28;20491;-53
2021/07/08 13:05:45;;;;;;;4.40;2.70;;;;;;;;;;5078179;28;20415;-53
2021/07/08 13:08:12;;;;;;;3.60;2.47;;;;;;;;;;5086305;28;20033;-55
2021/07/08 13:10:44;;;;;;;4.28;2.65;;;;;;;;;;5073145;28;20028;-51
2021/07/08 14:06:24;;;;;;;3.03;1.10;;;;;;;;;;5173324;27;20379;-63
2021/07/08 14:08:50;;;;;;;1.40;1.13;;;;;;;;;;5161193;27;20050;-63
2021/07/08 14:11:16;;;;;;;2.03;1.70;;;;;;;;;;5135290;27;20053;-62
2021/07/08 14:13:41;;;;;;;3.80;1.40;;;;;;;;;;5158985;27;20058;-62
2021/07/08 14:16:07;;;;;;;1.30;1.20;;;;;;;;;;5160738;27;20453;-62
2021/07/08 14:18:32;;;;;;;5.03;1.50;;;;;;;;;;5148745;27;20018;-62
2021/07/08 14:20:58;;;;;;;2.63;1.67;;;;;;;;;;5135259;27;20109;-63
2021/07/08 14:23:23;;;;;;;1.95;1.85;;;;;;;;;;5163331;27;20107;-63
2021/07/08 14:25:49;;;;;;;3.35;1.50;;;;;;;;;;5142725;27;20026;-63
2021/07/08 14:28:15;;;;;;;2.05;1.30;;;;;;;;;;5165304;27;20026;-62
2021/07/08 14:30:40;;;;;;;3.35;1.70;;;;;;;;;;5152116;27;20026;-62
2021/07/08 14:33:05;;;;;;;1.60;1.50;;;;;;;;;;5156496;27;20018;-62
2021/07/08 14:35:31;;;;;;;1.30;1.20;;;;;;;;;;5142015;27;20035;-62
2021/07/08 14:37:56;;;;;;;1.77;1.52;;;;;;;;;;5158588;27;20094;-62
2021/07/08 14:40:22;;;;;;;2.42;1.30;;;;;;;;;;5139542;27;20426;-63
2021/07/08 14:42:56;;;;;;;1.67;1.50;;;;;;;;;;5161938;27;20091;-63
2021/07/08 14:45:22;;;;;;;1.85;1.70;;;;;;;;;;5161568;27;20036;-63
2021/07/08 14:47:49;;;;;;;1.80;1.70;;;;;;;;;;5159187;27;20026;-63
2021/07/08 14:50:14;;;;;;;2.40;2.30;;;;;;;;;;5136203;27;20462;-63
2021/07/08 14:52:39;;;;;;;2.60;2.40;;;;;;;;;;5167339;27;20379;-64
2021/07/08 14:55:05;;;;;;;3.03;2.80;;;;;;;;;;5162174;27;20028;-63
2021/07/08 14:57:31;;;;;;;3.88;2.33;;;;;;;;;;5162278;27;20026;-63
2021/07/08 14:59:56;;;;;;;2.63;2.15;;;;;;;;;;5156482;27;20018;-63
2021/07/08 15:02:21;;;;;;;3.63;2.50;;;;;;;;;;5169823;27;20050;-64
2021/07/08 15:04:46;;;;;;;3.58;2.78;;;;;;;;;;5150281;27;20049;-63
2021/07/08 15:07:12;;;;;;;3.45;2.92;;;;;;;;;;5155444;27;20093;-63
2021/07/08 15:09:37;;;;;;;4.32;3.55;;;;;;;;;;5133649;27;20026;-64
2021/07/08 15:12:02;;;;;;;3.80;3.50;;;;;;;;;;5154963;27;20007;-64
2021/07/08 15:14:27;;;;;;;4.75;3.75;;;;;;;;;;5154726;27;20461;-64
2021/07/08 15:16:53;;;;;;;4.82;3.53;;;;;;;;;;5136245;27;20019;-64
2021/07/08 15:19:18;;;;;;;4.10;3.90;;;;;;;;;;5151913;27;20022;-64
2021/07/08 15:21:45;;;;;;;4.40;3.50;;;;;;;;;;5153939;27;20067;-63
2021/07/08 15:24:10;;;;;;;4.35;4.03;;;;;;;;;;5154981;27;20023;-63
2021/07/08 15:26:39;;;;;;;4.13;3.50;;;;;;;;;;5154353;27;20022;-64
2021/07/08 15:29:04;;;;;;;4.10;3.33;;;;;;;;;;5150330;27;20040;-63
2021/07/08 15:31:29;;;;;;;3.78;3.30;;;;;;;;;;5153386;27;20022;-64
2021/07/08 15:33:59;;;;;;;3.72;3.47;;;;;;;;;;5131968;27;20038;-64